createdAt,value
2022-12-02T00:02:35.416Z,16.55
2022-12-02T00:06:44.644Z,17.43
2022-12-02T00:15:42.405Z,13.70
2022-12-02T00:19:51.190Z,15.37
2022-12-02T00:23:59.763Z,14.60
2022-12-02T00:28:08.348Z,14.03
2022-12-02T00:32:16.976Z,17.33
2022-12-02T00:36:25.603Z,16.10
2022-12-02T00:40:35.768Z,16.07
2022-12-02T00:45:01.915Z,16.83
2022-12-02T00:49:16.387Z,15.33
2022-12-02T00:53:25.006Z,14.20
2022-12-02T00:57:33.631Z,14.87
2022-12-02T01:01:43.927Z,16.53
2022-12-02T01:05:53.447Z,16.23
2022-12-02T01:10:02.078Z,15.97
2022-12-02T01:14:10.643Z,17.03
2022-12-02T01:18:19.401Z,14.50
2022-12-02T01:22:27.977Z,16.43
2022-12-02T01:26:36.593Z,19.60
2022-12-02T01:30:45.483Z,14.90
2022-12-02T01:34:54.155Z,15.80
2022-12-02T01:39:02.785Z,15.97
2022-12-02T01:43:12.430Z,16.53
2022-12-02T01:47:21.068Z,15.10
2022-12-02T01:51:29.698Z,16.27
2022-12-02T01:55:38.630Z,16.20
2022-12-02T01:59:47.465Z,17.63
2022-12-02T02:03:56.298Z,14.00
2022-12-02T02:08:10.480Z,18.27
2022-12-02T02:12:19.140Z,17.10
2022-12-02T02:16:27.834Z,16.80
2022-12-02T02:20:39.644Z,19.13
2022-12-02T02:24:48.376Z,17.40
2022-12-02T02:28:57.184Z,13.83
2022-12-02T02:33:08.787Z,14.47
2022-12-02T02:37:17.389Z,20.13
2022-12-02T02:41:26.588Z,15.80
2022-12-02T02:45:37.832Z,16.20
2022-12-02T02:49:47.188Z,15.60
2022-12-02T02:53:56.024Z,14.10
2022-12-02T02:58:13.208Z,11.83
2022-12-02T03:02:22.551Z,14.90
2022-12-02T03:06:33.528Z,14.70
2022-12-02T03:10:42.621Z,13.60
2022-12-02T03:14:51.596Z,16.63
2022-12-02T03:19:01.413Z,10.63
2022-12-02T03:23:10.169Z,12.60
2022-12-02T03:27:19.285Z,13.48
2022-12-02T03:31:28.809Z,11.27
2022-12-02T03:35:37.653Z,12.70
2022-12-02T03:39:46.575Z,14.23
2022-12-02T03:43:57.792Z,13.23
2022-12-02T03:48:07.119Z,15.17
2022-12-02T03:52:15.973Z,15.17
2022-12-02T03:56:24.702Z,13.90
2022-12-02T04:00:33.323Z,13.50
2022-12-02T04:04:41.891Z,13.50
2022-12-02T04:08:50.486Z,13.20
2022-12-02T04:12:59.126Z,12.03
2022-12-02T04:17:08.528Z,13.13
2022-12-02T04:21:36.621Z,12.20
2022-12-02T04:25:45.280Z,13.87
2022-12-02T04:29:54.009Z,11.77
2022-12-02T04:34:02.636Z,14.10
2022-12-02T04:38:12.519Z,14.97
2022-12-02T04:42:21.328Z,14.27
2022-12-02T04:46:30.021Z,14.00
2022-12-02T04:50:38.789Z,11.40
2022-12-02T04:54:47.421Z,15.80
2022-12-02T04:58:55.973Z,12.93
2022-12-02T05:03:04.653Z,11.60
2022-12-02T05:07:13.277Z,12.90
2022-12-02T05:11:21.933Z,13.07
2022-12-02T05:15:30.565Z,13.03
2022-12-02T05:19:39.102Z,13.27
2022-12-02T05:23:47.715Z,10.63
2022-12-02T05:27:56.447Z,12.43
2022-12-02T05:32:05.209Z,10.70
2022-12-02T05:36:33.160Z,14.10
2022-12-02T05:40:41.676Z,14.25
2022-12-02T05:44:50.318Z,14.10
2022-12-02T05:49:19.836Z,11.50
2022-12-02T05:53:29.505Z,12.40
2022-12-02T05:57:38.085Z,13.50
2022-12-02T06:02:07.605Z,13.50
2022-12-02T06:06:16.467Z,10.90
2022-12-02T06:10:30.735Z,11.70
2022-12-02T06:14:39.562Z,13.73
2022-12-02T06:18:48.088Z,11.47
2022-12-02T06:22:57.493Z,10.70
2022-12-02T06:27:06.267Z,12.77
2022-12-02T06:31:43.742Z,11.57
2022-12-02T06:35:53.630Z,8.43
2022-12-02T06:40:27.466Z,8.97
2022-12-02T06:44:38.982Z,10.77
2022-12-02T06:48:48.188Z,9.97
2022-12-02T06:52:59.902Z,10.27
2022-12-02T06:57:10.474Z,11.33
2022-12-02T07:01:25.222Z,10.57
2022-12-02T07:05:33.864Z,10.37
2022-12-02T07:09:45.871Z,10.57
2022-12-02T07:13:54.501Z,11.40
2022-12-02T07:18:12.245Z,12.10
2022-12-02T07:22:23.975Z,12.50
2022-12-02T07:26:32.675Z,9.63
2022-12-02T07:30:43.024Z,9.53
2022-12-02T07:34:51.840Z,10.73
2022-12-02T07:39:07.786Z,9.30
2022-12-02T07:43:11.388Z,11.75
2022-12-02T07:47:20.146Z,11.87
2022-12-02T07:51:28.742Z,10.93
2022-12-02T07:55:38.195Z,11.03
2022-12-02T07:59:48.087Z,9.87
2022-12-02T08:03:56.889Z,13.00
2022-12-02T08:08:05.955Z,14.43
2022-12-02T08:12:14.558Z,12.70
2022-12-02T08:16:23.305Z,15.47
2022-12-02T08:20:51.268Z,14.40
2022-12-02T08:25:19.405Z,13.90
2022-12-02T08:29:29.423Z,13.63
2022-12-02T08:33:38.042Z,16.32
2022-12-02T08:38:07.258Z,13.63
2022-12-02T08:42:15.883Z,15.27
2022-12-02T08:46:24.460Z,13.43
2022-12-02T08:50:33.074Z,15.13
2022-12-02T08:54:43.304Z,12.90
2022-12-02T08:58:52.140Z,16.33
2022-12-02T09:03:01.263Z,12.80
2022-12-02T09:07:10.011Z,15.13
2022-12-02T09:11:18.946Z,13.63
2022-12-02T09:15:27.535Z,14.60
2022-12-02T09:19:36.204Z,13.30
2022-12-02T09:23:50.226Z,16.03
2022-12-02T09:27:55.267Z,14.00
2022-12-02T09:32:03.844Z,12.80
2022-12-02T09:36:12.465Z,12.83
2022-12-02T09:40:22.065Z,15.63
2022-12-02T09:44:31.954Z,12.73
2022-12-02T09:48:40.700Z,13.53
2022-12-02T09:52:50.419Z,17.13
2022-12-02T09:57:00.115Z,14.30
2022-12-02T10:01:11.405Z,13.50
2022-12-02T10:05:25.471Z,14.43
2022-12-02T10:09:34.799Z,15.37
2022-12-02T10:13:43.339Z,14.77
2022-12-02T10:17:53.493Z,14.30
2022-12-02T10:22:02.077Z,15.97
2022-12-02T10:26:16.475Z,19.77
2022-12-02T10:30:27.024Z,16.87
2022-12-02T10:34:37.021Z,15.70
2022-12-02T10:38:46.745Z,17.07
2022-12-02T10:43:12.706Z,17.93
2022-12-02T10:47:26.801Z,14.13
2022-12-02T10:51:35.800Z,16.80
2022-12-02T10:55:46.990Z,14.50
2022-12-02T10:59:57.349Z,15.70
2022-12-02T11:04:08.620Z,16.60
2022-12-02T11:08:23.208Z,16.77
2022-12-02T11:12:55.608Z,14.55
2022-12-02T11:17:12.732Z,18.93
2022-12-02T11:21:33.545Z,14.17
2022-12-02T11:25:50.011Z,15.53
2022-12-02T11:30:11.080Z,16.33
2022-12-02T11:34:28.432Z,15.43
2022-12-02T11:38:55.883Z,16.03
2022-12-02T11:43:42.644Z,13.43
2022-12-02T11:47:56.736Z,17.10
2022-12-02T11:52:12.864Z,15.47
2022-12-02T11:56:21.698Z,15.07
2022-12-02T12:00:38.598Z,12.13
2022-12-02T12:04:47.452Z,19.90
2022-12-02T12:08:57.788Z,14.57
2022-12-02T12:13:29.460Z,14.37
2022-12-02T12:17:43.861Z,16.47
2022-12-02T12:21:55.541Z,14.03
2022-12-02T12:26:05.811Z,14.10
2022-12-02T12:30:14.454Z,17.40
2022-12-02T12:34:23.270Z,15.60
2022-12-02T12:38:32.074Z,13.47
2022-12-02T12:42:40.923Z,16.10
2022-12-02T12:46:49.522Z,14.97
2022-12-02T12:50:58.116Z,16.20
2022-12-02T12:55:07.583Z,14.70
2022-12-02T12:59:35.542Z,15.77
2022-12-02T13:04:04.652Z,14.40
2022-12-02T13:08:13.681Z,16.53
2022-12-02T13:12:22.215Z,16.33
2022-12-02T13:16:31.137Z,17.80
2022-12-02T13:20:40.170Z,16.90
2022-12-02T13:24:48.819Z,14.73
2022-12-02T13:28:57.630Z,14.23
2022-12-02T13:33:06.280Z,17.70
2022-12-02T13:37:15.128Z,16.23
2022-12-02T13:41:23.697Z,16.60
2022-12-02T13:45:32.371Z,19.27
2022-12-02T13:49:41.329Z,17.37
2022-12-02T13:54:09.257Z,15.20
2022-12-02T13:58:17.931Z,15.63
2022-12-02T14:02:30.437Z,14.57
2022-12-02T14:06:39.270Z,15.47
2022-12-02T14:10:47.906Z,16.23
2022-12-02T14:14:56.530Z,18.60
2022-12-02T14:19:05.259Z,18.70
2022-12-02T14:23:33.745Z,16.67
2022-12-02T14:27:42.315Z,17.33
2022-12-02T14:31:51.083Z,21.17
2022-12-02T14:35:59.723Z,19.07
2022-12-02T14:40:09.254Z,16.03
2022-12-02T14:44:18.843Z,18.00
2022-12-02T14:48:40.008Z,16.17
2022-12-02T14:52:48.695Z,15.60
2022-12-02T14:56:57.330Z,17.60
2022-12-02T15:01:06.835Z,19.13
2022-12-02T15:05:21.137Z,17.20
2022-12-02T15:09:42.408Z,16.37
2022-12-02T15:13:51.319Z,15.40
2022-12-02T15:18:21.098Z,13.40
2022-12-02T15:22:29.647Z,15.57
2022-12-02T15:26:38.277Z,15.50
2022-12-02T15:30:46.882Z,16.63
2022-12-02T15:34:55.441Z,16.27
2022-12-02T15:39:05.003Z,17.27
2022-12-02T15:43:13.610Z,14.37
2022-12-02T15:47:22.296Z,14.33
2022-12-02T15:51:30.972Z,16.00
2022-12-02T15:55:39.511Z,15.50
2022-12-02T15:59:48.227Z,14.67
2022-12-02T16:03:57.164Z,13.90
2022-12-02T16:08:06.423Z,15.87
2022-12-02T16:12:15.238Z,13.90
2022-12-02T16:16:24.272Z,14.60
2022-12-02T16:20:33.021Z,13.50
2022-12-02T16:24:41.636Z,14.73
2022-12-02T16:28:50.182Z,13.87
2022-12-02T16:32:58.748Z,13.07
2022-12-02T16:37:07.486Z,11.60
2022-12-02T16:41:16.088Z,14.10
2022-12-02T16:45:26.038Z,13.60
2022-12-02T16:49:34.945Z,13.80
2022-12-02T16:54:03.029Z,13.40
2022-12-02T16:58:11.658Z,14.97
2022-12-02T17:02:20.354Z,13.60
2022-12-02T17:06:29.018Z,17.43
2022-12-02T17:10:37.570Z,12.93
2022-12-02T17:14:48.524Z,14.00
2022-12-02T17:19:16.457Z,10.97
2022-12-02T17:23:25.037Z,13.67
2022-12-02T17:27:33.562Z,14.30
2022-12-02T17:31:44.313Z,12.40
2022-12-02T17:35:54.415Z,13.70
2022-12-02T17:40:03.242Z,14.80
2022-12-02T17:44:16.412Z,14.67
2022-12-02T17:48:22.674Z,12.40
2022-12-02T17:52:32.912Z,14.33
2022-12-02T17:56:41.439Z,12.90
2022-12-02T18:00:50.023Z,15.03
2022-12-02T18:05:00.540Z,15.03
2022-12-02T18:09:09.067Z,11.20
2022-12-02T18:13:18.001Z,13.97
2022-12-02T18:17:26.527Z,12.03
2022-12-02T18:21:35.174Z,11.23
2022-12-02T18:26:03.125Z,14.00
2022-12-02T18:30:17.255Z,11.63
2022-12-02T18:34:23.761Z,12.77
2022-12-02T18:38:32.348Z,10.17
2022-12-02T18:42:41.032Z,11.23
2022-12-02T18:47:01.791Z,10.63
2022-12-02T18:51:10.354Z,10.77
2022-12-02T18:55:19.229Z,9.27
2022-12-02T18:59:27.941Z,11.00
2022-12-02T19:03:55.819Z,10.07
2022-12-02T19:08:04.714Z,9.10
2022-12-02T19:12:13.350Z,9.00
2022-12-02T19:16:22.051Z,12.20
2022-12-02T19:20:30.879Z,10.87
2022-12-02T19:24:39.781Z,12.80
2022-12-02T19:28:48.297Z,10.13
2022-12-02T19:32:56.872Z,9.03
2022-12-02T19:37:05.512Z,10.60
2022-12-02T19:41:14.193Z,11.27
2022-12-02T19:45:22.822Z,9.80
2022-12-02T19:49:31.553Z,13.53
2022-12-02T19:53:40.079Z,10.93
2022-12-02T19:57:48.713Z,12.60
2022-12-02T20:01:57.365Z,13.17
2022-12-02T20:06:06.320Z,12.23
2022-12-02T20:10:15.412Z,10.77
2022-12-02T20:14:24.049Z,11.93
2022-12-02T20:18:51.923Z,10.50
2022-12-02T20:23:00.550Z,11.47
2022-12-02T20:27:09.076Z,11.13
2022-12-02T20:31:17.713Z,12.60
2022-12-02T20:35:26.305Z,12.97
2022-12-02T20:39:35.272Z,12.25
2022-12-02T20:43:44.597Z,10.43
2022-12-02T20:48:12.904Z,10.97
2022-12-02T20:52:21.536Z,7.97
2022-12-02T20:56:49.516Z,10.13
2022-12-02T21:00:58.178Z,10.37
2022-12-02T21:05:09.065Z,9.10
2022-12-02T21:09:17.862Z,8.00
2022-12-02T21:13:26.640Z,10.70
2022-12-02T21:17:35.585Z,9.90
2022-12-02T21:21:44.361Z,9.37
2022-12-02T21:25:53.376Z,8.57
2022-12-02T21:30:02.133Z,7.87
2022-12-02T21:34:10.776Z,10.10
2022-12-02T21:38:19.344Z,9.70
2022-12-02T21:42:27.948Z,8.97
2022-12-02T21:46:36.700Z,9.87
2022-12-02T21:50:45.376Z,10.50
2022-12-02T21:54:54.147Z,8.87
2022-12-02T21:59:05.914Z,7.13
2022-12-02T22:03:15.228Z,8.07
2022-12-02T22:07:44.872Z,9.63
2022-12-02T22:11:53.299Z,8.87
2022-12-02T22:16:01.976Z,9.17
2022-12-02T22:20:11.930Z,8.47
2022-12-02T22:24:20.621Z,7.27
2022-12-02T22:28:29.114Z,9.17
2022-12-02T22:32:37.701Z,10.20
2022-12-02T22:36:46.302Z,9.90
2022-12-02T22:40:54.940Z,8.70
2022-12-02T22:45:03.570Z,8.97
2022-12-02T22:49:12.085Z,8.23
2022-12-02T22:53:20.713Z,8.03
2022-12-02T22:57:29.219Z,9.00
2022-12-02T23:01:37.945Z,9.63
2022-12-02T23:05:46.599Z,8.23
2022-12-02T23:09:55.227Z,7.20
2022-12-02T23:14:03.958Z,10.83
2022-12-02T23:18:12.589Z,10.23
2022-12-02T23:22:40.412Z,9.57
2022-12-02T23:26:49.095Z,9.60
2022-12-02T23:30:57.767Z,11.17
2022-12-02T23:35:06.868Z,11.20
2022-12-02T23:39:15.494Z,8.77
2022-12-02T23:43:24.126Z,8.60
2022-12-02T23:47:32.755Z,7.20
2022-12-02T23:51:41.250Z,6.87
2022-12-02T23:55:49.912Z,7.87
2022-12-02T23:59:58.643Z,8.50
